Time;durP1;ratioP1;P1;durP2;ratioP2;P2;SDS_P1;SDS_P2;PMS_P1;PMS_P2;Temp;Humidity;BMP_temperature;BMP_pressure;BME280_temperature;BME280_humidity;BME280_pressure;Samples;Min_cycle;Max_cycle;Signal;HPM_P1;HPM_P2
2021/10/06 00:00:31;;;;;;;11.10;5.45;;;;;;;7.07;100.00;102845.50;1654119;85;20879;-88
2021/10/06 00:02:56;;;;;;;9.38;4.70;;;;;;;7.00;100.00;102844.88;1654165;85;20867;-88
2021/10/06 00:05:22;;;;;;;11.80;5.00;;;;;;;6.96;100.00;102856.13;1654071;85;21778;-88
2021/10/06 00:07:48;;;;;;;14.05;5.20;;;;;;;6.91;100.00;102854.01;1654035;85;20986;-88
2021/10/06 00:10:15;;;;;;;14.05;5.80;;;;;;;6.88;100.00;102851.66;1654042;85;20978;-88
2021/10/06 00:12:41;;;;;;;14.50;5.37;;;;;;;6.85;100.00;102844.48;1653928;85;21129;-88
2021/10/06 00:15:10;;;;;;;12.13;4.97;;;;;;;6.81;100.00;102847.53;1654198;85;21019;-88
2021/10/06 00:17:36;;;;;;;15.20;5.35;;;;;;;6.79;100.00;102852.25;1654224;85;21184;-89
2021/10/06 00:20:04;;;;;;;16.60;5.12;;;;;;;6.76;100.00;102843.20;1653905;85;21046;-88
2021/10/06 00:22:29;;;;;;;13.40;5.67;;;;;;;6.74;100.00;102851.12;1654208;85;21535;-88
2021/10/06 00:24:55;;;;;;;11.90;5.70;;;;;;;6.69;100.00;102847.62;1654153;85;20848;-88
2021/10/06 00:27:21;;;;;;;13.80;5.33;;;;;;;6.67;100.00;102848.80;1654253;85;20860;-89
2021/10/06 00:29:47;;;;;;;16.52;4.92;;;;;;;6.64;100.00;102852.67;1654146;85;21158;-88
2021/10/06 00:32:13;;;;;;;11.05;5.53;;;;;;;6.58;100.00;102846.17;1653975;85;20955;-88
2021/10/06 00:34:39;;;;;;;10.78;4.78;;;;;;;6.59;100.00;102847.03;1653904;85;21558;-87
2021/10/06 00:37:05;;;;;;;14.45;5.40;;;;;;;6.56;100.00;102848.73;1654105;85;20950;-88
2021/10/06 00:39:31;;;;;;;14.73;6.08;;;;;;;6.56;100.00;102851.41;1654031;85;21106;-88
2021/10/06 00:41:57;;;;;;;14.53;6.12;;;;;;;6.55;100.00;102847.04;1653980;85;21589;-87
2021/10/06 00:44:22;;;;;;;14.10;5.60;;;;;;;6.55;100.00;102860.44;1654028;85;20966;-87
2021/10/06 00:46:50;;;;;;;10.48;4.92;;;;;;;6.54;100.00;102858.27;1649958;85;20994;-88
2021/10/06 00:49:17;;;;;;;15.60;5.40;;;;;;;6.53;100.00;102860.63;1654013;85;21022;-88
2021/10/06 00:51:44;;;;;;;20.25;6.10;;;;;;;6.51;100.00;102863.98;1654130;85;21078;-87
2021/10/06 00:54:09;;;;;;;12.68;5.37;;;;;;;6.50;100.00;102870.84;1653831;85;21166;-88
2021/10/06 00:56:36;;;;;;;12.47;5.85;;;;;;;6.48;100.00;102864.84;1627532;86;21066;-89
2021/10/06 00:59:03;;;;;;;12.60;5.50;;;;;;;6.46;100.00;102861.50;1654017;85;21030;-88
2021/10/06 01:01:29;;;;;;;13.35;5.92;;;;;;;6.47;100.00;102867.17;1653988;85;20987;-88
2021/10/06 01:03:55;;;;;;;14.68;5.67;;;;;;;6.47;100.00;102870.71;1653560;85;20995;-88
2021/10/06 01:06:21;;;;;;;16.02;6.12;;;;;;;6.46;100.00;102865.52;1627716;85;21155;-88
2021/10/06 01:08:47;;;;;;;12.03;5.75;;;;;;;6.48;100.00;102862.16;1653944;85;21058;-87
2021/10/06 01:11:13;;;;;;;15.70;5.75;;;;;;;6.49;100.00;102859.80;1665557;84;21053;-88
2021/10/06 01:13:39;;;;;;;18.60;6.85;;;;;;;6.38;100.00;102844.95;1659993;84;21069;-87
2021/10/06 01:16:05;;;;;;;12.07;5.35;;;;;;;6.51;100.00;102863.15;1637667;86;21027;-87
2021/10/06 01:18:32;;;;;;;22.15;5.80;;;;;;;6.51;100.00;102860.47;1664205;84;21090;-87
2021/10/06 01:21:12;;;;;;;15.10;5.80;;;;;;;6.51;100.00;102858.62;1664411;84;21125;-87
2021/10/06 01:23:38;;;;;;;18.37;6.65;;;;;;;6.51;100.00;102859.95;1534070;93;21231;-88
2021/10/06 01:26:05;;;;;;;17.37;6.37;;;;;;;6.57;100.00;102864.61;1534380;93;21616;-88
2021/10/06 01:28:31;;;;;;;15.83;6.30;;;;;;;6.60;100.00;102866.93;1534269;93;21611;-88
2021/10/06 01:30:57;;;;;;;12.70;5.25;;;;;;;6.63;100.00;102868.94;1534097;93;21057;-87
2021/10/06 01:33:24;;;;;;;17.50;6.25;;;;;;;6.66;100.00;102873.94;1534180;93;21174;-88
2021/10/06 01:35:49;;;;;;;18.45;5.58;;;;;;;6.70;100.00;102873.90;1534255;93;21142;-88
2021/10/06 01:38:17;;;;;;;13.58;5.08;;;;;;;6.73;100.00;102875.72;1534216;93;21694;-89
2021/10/06 01:40:44;;;;;;;14.50;5.12;;;;;;;6.77;100.00;102871.69;1534318;93;21090;-87
2021/10/06 01:43:10;;;;;;;12.28;5.17;;;;;;;6.81;100.00;102881.02;1538788;93;21198;-87
2021/10/06 01:45:36;;;;;;;16.15;4.30;;;;;;;6.88;100.00;102883.81;1540015;93;21022;-88
2021/10/06 01:48:09;;;;;;;12.73;4.97;;;;;;;6.94;100.00;102884.95;1534622;93;21120;-88
2021/10/06 01:50:37;;;;;;;14.15;5.17;;;;;;;6.98;100.00;102883.59;1540421;93;21004;-88
2021/10/06 01:53:05;;;;;;;13.68;5.08;;;;;;;7.01;100.00;102884.58;1540255;93;21066;-88
2021/10/06 01:55:33;;;;;;;14.33;4.78;;;;;;;7.02;100.00;102880.87;1540391;93;21231;-88
2021/10/06 01:58:04;;;;;;;14.35;5.37;;;;;;;7.04;100.00;102896.28;1540345;93;21114;-87
2021/10/06 02:00:31;;;;;;;13.40;4.33;;;;;;;7.02;100.00;102893.77;1545140;92;21583;-86
2021/10/06 02:02:57;;;;;;;17.98;4.78;;;;;;;7.03;100.00;102890.09;1552951;92;21659;-86
2021/10/06 02:05:24;;;;;;;10.93;4.60;;;;;;;7.05;100.00;102888.56;1533282;92;20939;-88
2021/10/06 02:07:50;;;;;;;12.18;5.00;;;;;;;7.06;100.00;102890.25;1553107;92;21178;-87
2021/10/06 02:10:16;;;;;;;19.62;5.55;;;;;;;7.05;100.00;102897.43;1552802;92;21130;-87
2021/10/06 02:12:42;;;;;;;11.30;4.37;;;;;;;7.04;100.00;102893.60;1552872;92;22979;-88
2021/10/06 02:15:09;;;;;;;13.55;4.60;;;;;;;7.02;100.00;102895.11;1611917;87;21042;-88
2021/10/06 02:17:34;;;;;;;15.98;5.25;;;;;;;7.00;100.00;102893.13;1636743;86;21011;-87
2021/10/06 02:20:01;;;;;;;10.48;4.67;;;;;;;6.98;100.00;102896.49;1636792;86;21635;-87
2021/10/06 02:22:27;;;;;;;14.00;5.12;;;;;;;6.95;100.00;102896.85;1636623;87;21024;-86
2021/10/06 02:24:53;;;;;;;12.53;4.28;;;;;;;6.91;100.00;102895.55;1636658;86;21587;-87
2021/10/06 02:27:19;;;;;;;10.88;4.45;;;;;;;6.87;100.00;102894.22;1636401;86;21428;-87
2021/10/06 02:29:44;;;;;;;10.65;4.60;;;;;;;6.83;100.00;102894.27;1637093;87;21114;-86
2021/10/06 02:32:10;;;;;;;13.10;4.55;;;;;;;6.88;100.00;102903.92;1636683;86;21907;-87
2021/10/06 02:34:36;;;;;;;9.80;4.50;;;;;;;6.92;100.00;102904.42;1636545;86;20922;-87
2021/10/06 02:37:03;;;;;;;12.28;4.30;;;;;;;6.91;100.00;102908.09;1636721;86;20880;-87
2021/10/06 02:39:28;;;;;;;13.30;4.30;;;;;;;6.90;100.00;102909.11;1636346;87;21061;-86
2021/10/06 02:41:54;;;;;;;16.75;4.47;;;;;;;6.89;100.00;102912.82;1639104;85;21026;-86
2021/10/06 02:44:20;;;;;;;9.83;4.08;;;;;;;6.87;100.00;102918.34;1664676;84;21048;-86
2021/10/06 02:46:46;;;;;;;10.53;3.90;;;;;;;6.88;100.00;102917.31;1664720;85;21756;-86
2021/10/06 02:49:12;;;;;;;7.83;4.00;;;;;;;6.90;100.00;102921.17;1664619;84;20986;-88
2021/10/06 02:51:38;;;;;;;14.93;4.22;;;;;;;6.91;100.00;102917.47;1664790;84;20899;-86
2021/10/06 02:54:04;;;;;;;9.33;3.58;;;;;;;6.93;100.00;102922.98;1664615;84;21003;-86
2021/10/06 02:56:30;;;;;;;12.03;3.60;;;;;;;6.94;100.00;102926.50;1664462;84;21636;-87
2021/10/06 02:58:56;;;;;;;7.78;3.40;;;;;;;6.91;100.00;102922.35;1664618;84;21626;-87
2021/10/06 03:01:22;;;;;;;14.43;3.33;;;;;;;6.91;100.00;102916.99;1664788;84;20990;-88
2021/10/06 03:03:47;;;;;;;8.63;3.70;;;;;;;6.90;100.00;102926.03;1664622;84;20927;-87
2021/10/06 03:06:14;;;;;;;9.28;3.27;;;;;;;6.86;100.00;102927.92;1664554;84;21648;-88
2021/10/06 03:08:40;;;;;;;8.28;2.90;;;;;;;6.85;100.00;102924.38;1664513;84;21074;-87
2021/10/06 03:11:05;;;;;;;6.90;3.35;;;;;;;6.83;100.00;102931.78;1664392;84;20973;-87
2021/10/06 03:13:31;;;;;;;15.25;3.50;;;;;;;6.78;100.00;102920.23;1664507;84;20994;-88
2021/10/06 03:15:59;;;;;;;7.17;2.80;;;;;;;6.73;100.00;102927.13;1664615;84;21550;-86
2021/10/06 03:18:26;;;;;;;9.48;3.10;;;;;;;6.71;100.00;102923.82;1665112;83;21121;-87
2021/10/06 03:20:53;;;;;;;9.55;3.12;;;;;;;6.66;100.00;102932.38;1691661;83;21086;-90
2021/10/06 03:23:20;;;;;;;13.53;2.87;;;;;;;6.64;100.00;102934.89;1691355;83;21015;-89
2021/10/06 03:25:46;;;;;;;8.98;3.25;;;;;;;6.60;100.00;102943.80;1692173;83;21113;-87
2021/10/06 03:28:12;;;;;;;7.67;3.12;;;;;;;6.54;100.00;102949.34;1692035;83;21054;-90
2021/10/06 03:30:38;;;;;;;7.97;2.85;;;;;;;6.50;100.00;102947.17;1691884;83;21010;-89
2021/10/06 03:33:05;;;;;;;7.58;3.08;;;;;;;6.45;100.00;102941.53;1691851;83;21181;-87
2021/10/06 03:35:31;;;;;;;10.23;3.67;;;;;;;6.42;100.00;102941.87;1691995;83;21077;-87
2021/10/06 03:37:57;;;;;;;11.90;3.37;;;;;;;6.40;100.00;102941.20;1691602;83;22168;-87
2021/10/06 03:40:24;;;;;;;10.63;3.40;;;;;;;6.35;100.00;102941.23;1691785;83;21126;-87
2021/10/06 03:42:51;;;;;;;11.88;3.80;;;;;;;6.30;100.00;102936.89;1691692;83;21105;-88
2021/10/06 03:45:17;;;;;;;6.78;2.77;;;;;;;6.26;100.00;102939.56;1691857;83;21106;-88
2021/10/06 03:47:44;;;;;;;11.20;3.75;;;;;;;6.20;100.00;102934.91;1691860;83;21011;-88
2021/10/06 03:50:13;;;;;;;7.22;2.85;;;;;;;6.18;100.00;102942.78;1692476;83;21061;-89
2021/10/06 03:52:40;;;;;;;10.85;3.10;;;;;;;6.14;100.00;102947.14;1692305;83;21487;-87
2021/10/06 03:55:08;;;;;;;11.63;2.95;;;;;;;6.10;100.00;102944.48;1692348;83;22185;-87
2021/10/06 03:57:35;;;;;;;8.33;2.75;;;;;;;6.08;100.00;102943.81;1692463;84;21034;-90
2021/10/06 04:00:02;;;;;;;10.20;3.00;;;;;;;6.06;100.00;102942.31;1664992;84;21030;-88
2021/10/06 04:02:28;;;;;;;6.90;2.90;;;;;;;6.04;100.00;102945.69;1692497;83;21015;-89
2021/10/06 04:04:54;;;;;;;10.78;3.33;;;;;;;6.04;100.00;102955.05;1692094;83;21057;-87
2021/10/06 04:07:20;;;;;;;5.37;2.70;;;;;;;5.99;100.00;102939.49;1692230;83;20887;-88
2021/10/06 04:09:46;;;;;;;10.32;3.05;;;;;;;5.99;100.00;102952.05;1692213;83;21199;-88
2021/10/06 04:12:12;;;;;;;8.80;3.42;;;;;;;5.90;100.00;102931.95;1692233;83;20999;-87
2021/10/06 04:14:38;;;;;;;8.25;3.17;;;;;;;5.98;100.00;102960.58;1692497;83;21519;-87
2021/10/06 04:17:03;;;;;;;9.50;3.33;;;;;;;5.98;100.00;102955.73;1692244;83;20887;-88
2021/10/06 04:19:29;;;;;;;10.65;3.08;;;;;;;5.96;100.00;102959.08;1692201;83;20888;-88
2021/10/06 04:21:55;;;;;;;9.35;2.70;;;;;;;5.96;100.00;102959.91;1692120;83;21166;-88
2021/10/06 04:24:21;;;;;;;10.68;3.25;;;;;;;5.99;100.00;102965.42;1692296;83;21017;-89
2021/10/06 04:26:47;;;;;;;6.15;3.02;;;;;;;5.99;100.00;102953.38;1692456;84;20907;-90
2021/10/06 04:29:13;;;;;;;9.73;2.75;;;;;;;6.11;100.00;102970.75;1692417;83;20879;-87
2021/10/06 04:31:39;;;;;;;8.23;2.90;;;;;;;6.11;100.00;102970.75;1687356;83;20865;-92
2021/10/06 04:34:05;;;;;;;14.53;3.58;;;;;;;6.18;100.00;102973.09;1678527;83;21806;-88
2021/10/06 04:36:31;;;;;;;18.75;3.87;;;;;;;6.50;100.00;102969.94;1691000;83;20903;-89
2021/10/06 04:38:56;;;;;;;12.47;3.60;;;;;;;6.50;100.00;102969.94;1688160;83;20990;-88
2021/10/06 04:41:22;;;;;;;11.63;3.47;;;;;;;7.54;100.00;102967.80;1692727;83;20955;-90
2021/10/06 04:43:48;;;;;;;5.83;2.67;;;;;;;8.98;100.00;102967.34;1676811;83;21043;-90
2021/10/06 04:46:16;;;;;;;10.18;3.00;;;;;;;10.23;100.00;102968.06;1668396;85;21161;-89
2021/10/06 04:48:42;;;;;;;6.42;2.60;;;;;;;11.22;100.00;102967.29;1665720;86;21148;-91
2021/10/06 04:51:08;;;;;;;5.92;2.52;;;;;;;11.77;88.10;102974.16;1652542;85;21093;-91
2021/10/06 04:53:34;;;;;;;13.28;2.95;;;;;;;12.35;77.70;102979.37;1645803;86;20952;-91
2021/10/06 04:56:00;;;;;;;9.03;2.22;;;;;;;12.79;67.31;102977.74;1666357;86;20904;-91
2021/10/06 04:58:26;;;;;;;7.62;2.65;;;;;;;12.98;63.61;102983.59;1668721;84;21626;-89
2021/10/06 05:00:51;;;;;;;10.43;3.05;;;;;;;13.52;61.31;102983.55;1668665;84;20921;-90
2021/10/06 05:03:17;;;;;;;6.80;2.77;;;;;;;13.64;57.90;102986.37;1668813;86;20988;-90
2021/10/06 05:05:45;;;;;;;9.60;3.17;;;;;;;13.98;56.51;102986.39;1649400;85;22385;-88
2021/10/06 05:08:11;;;;;;;8.88;2.90;;;;;;;14.42;52.68;102984.45;1668510;85;20942;-88
2021/10/06 05:10:37;;;;;;;7.72;2.47;;;;;;;14.49;51.09;102983.83;1668757;84;21104;-90
2021/10/06 05:13:04;;;;;;;12.25;2.83;;;;;;;14.76;49.61;102972.67;1668687;84;21017;-89
2021/10/06 05:15:30;;;;;;;12.95;2.60;;;;;;;14.85;49.08;102978.08;1668634;84;21036;-89
2021/10/06 05:17:56;;;;;;;12.98;3.15;;;;;;;14.96;47.59;102984.09;1668351;84;21068;-89
2021/10/06 05:20:22;;;;;;;6.45;2.40;;;;;;;15.06;47.86;102984.06;1655303;86;20909;-89
2021/10/06 05:22:48;;;;;;;11.15;3.33;;;;;;;15.48;46.31;102974.56;1644738;86;21245;-89
2021/10/06 05:25:14;;;;;;;16.80;2.80;;;;;;;15.80;45.79;102984.06;1661635;84;20883;-92
2021/10/06 05:27:39;;;;;;;15.83;3.58;;;;;;;15.78;44.21;102982.64;1658527;86;21171;-88
2021/10/06 05:30:09;;;;;;;14.07;3.33;;;;;;;15.75;43.66;102985.84;1668643;86;20944;-89
2021/10/06 05:32:36;;;;;;;21.80;3.87;;;;;;;16.12;43.75;102979.63;1632854;87;21495;-91
2021/10/06 05:35:03;;;;;;;10.30;3.12;;;;;;;16.08;42.11;102980.61;1633226;87;22085;-88
2021/10/06 05:37:29;;;;;;;8.73;3.00;;;;;;;16.15;42.55;102985.09;1633017;87;21065;-89
2021/10/06 05:39:55;;;;;;;11.48;2.85;;;;;;;16.87;41.95;102981.98;1632957;87;20887;-91
2021/10/06 05:42:21;;;;;;;16.17;2.85;;;;;;;17.27;40.68;102982.45;1633263;87;20958;-91
2021/10/06 05:44:47;;;;;;;17.25;3.27;;;;;;;16.80;39.65;102972.07;1626315;86;20931;-94
2021/10/06 05:47:13;;;;;;;26.23;3.45;;;;;;;16.69;40.49;102979.72;1614616;87;21688;-95
2021/10/06 05:49:39;;;;;;;10.10;3.02;;;;;;;17.01;39.36;102983.34;1617375;87;21035;-87
2021/10/06 05:52:05;;;;;;;14.83;3.22;;;;;;;17.14;39.99;102986.30;1633017;87;21203;-91
2021/10/06 05:54:31;;;;;;;16.00;3.02;;;;;;;17.24;38.78;102979.14;1630715;87;21113;-96
2021/10/06 05:56:57;;;;;;;13.65;3.50;;;;;;;17.13;38.62;102977.30;1635302;86;21078;-94
2021/10/06 05:59:23;;;;;;;9.38;3.25;;;;;;;17.30;38.05;102980.05;1638346;86;21836;-94
2021/10/06 06:01:49;;;;;;;10.40;2.95;;;;;;;17.25;38.05;102994.41;1636761;86;20935;-92
2021/10/06 06:04:17;;;;;;;9.85;3.35;;;;;;;17.91;38.72;102997.42;1635695;86;21177;-93
2021/10/06 06:06:45;;;;;;;9.63;3.12;;;;;;;18.64;37.68;103001.91;1617542;86;21105;-94
2021/10/06 06:09:13;;;;;;;13.65;3.40;;;;;;;18.73;36.67;103000.38;1635828;86;21141;-89
2021/10/06 06:11:39;;;;;;;8.45;3.00;;;;;;;19.00;35.86;103013.58;1634187;86;21094;-92
2021/10/06 06:14:08;;;;;;;8.95;3.45;;;;;;;19.16;35.48;102997.32;1634521;86;21543;-95
2021/10/06 06:16:34;;;;;;;11.78;2.95;;;;;;;19.04;35.30;103008.41;1629979;86;21039;-91
2021/10/06 06:19:02;;;;;;;9.75;2.92;;;;;;;19.17;35.15;103001.69;1651396;86;20869;-92
2021/10/06 06:21:28;;;;;;;4.30;2.60;;;;;;;19.59;34.83;103010.53;1643129;86;21661;-94
2021/10/06 06:23:54;;;;;;;18.20;3.17;;;;;;;19.93;34.00;103017.38;1631937;87;21310;-92
2021/10/06 06:26:20;;;;;;;6.90;2.95;;;;;;;20.27;33.29;103004.73;1631755;87;20971;-91
2021/10/06 06:28:46;;;;;;;12.78;3.83;;;;;;;20.27;32.49;103017.05;1622835;87;21755;-89
2021/10/06 06:31:12;;;;;;;17.30;3.33;;;;;;;19.92;32.83;103025.33;1643369;84;20911;-95
2021/10/06 06:33:38;;;;;;;10.03;2.92;;;;;;;20.07;32.91;103012.83;1651924;84;21002;-95
2021/10/06 06:36:04;;;;;;;12.98;3.27;;;;;;;20.15;32.74;103011.79;1697100;84;21914;-93
2021/10/06 06:38:30;;;;;;;15.48;3.33;;;;;;;20.32;32.52;103011.58;1677743;84;21059;-95
2021/10/06 06:40:56;;;;;;;17.32;3.50;;;;;;;20.84;32.35;103008.53;1665676;84;21073;-89
2021/10/06 06:43:23;;;;;;;22.22;3.58;;;;;;;20.89;31.46;103007.73;1693564;83;21648;-93
2021/10/06 06:45:49;;;;;;;10.80;3.40;;;;;;;20.89;31.23;103002.25;1702312;82;21072;-92
2021/10/06 06:48:16;;;;;;;18.57;3.67;;;;;;;21.28;30.95;102997.08;1702340;82;21162;-90
2021/10/06 06:50:42;;;;;;;22.82;6.15;;;;;;;21.44;30.49;103000.67;1702365;82;21624;-93
2021/10/06 06:53:08;;;;;;;38.83;5.28;;;;;;;20.91;30.63;103005.52;1702379;82;21069;-94
2021/10/06 06:55:34;;;;;;;26.15;8.75;;;;;;;20.71;30.20;103008.50;1671821;83;20915;-95
2021/10/06 06:58:00;;;;;;;9.40;4.08;;;;;;;20.91;30.42;103006.34;1703399;83;20966;-96
2021/10/06 07:00:26;;;;;;;14.65;4.03;;;;;;;20.65;30.31;103008.20;1703358;84;20995;-95
2021/10/06 07:02:51;;;;;;;18.52;4.25;;;;;;;20.92;30.18;102998.97;1702464;82;20911;-92
2021/10/06 07:05:18;;;;;;;14.15;3.75;;;;;;;20.72;29.99;103003.28;1702412;82;20974;-92
2021/10/06 07:07:47;;;;;;;16.23;3.50;;;;;;;20.91;30.15;103009.08;1699004;83;21596;-96
2021/10/06 07:10:12;;;;;;;18.17;4.42;;;;;;;21.57;29.91;103005.63;1702412;83;21035;-93
2021/10/06 07:12:38;;;;;;;19.45;4.42;;;;;;;21.78;28.52;103009.98;1702442;82;20876;-92
2021/10/06 07:15:05;;;;;;;16.93;4.45;;;;;;;21.45;28.60;103003.70;1697427;83;20883;-91
2021/10/06 07:17:31;;;;;;;18.62;4.53;;;;;;;20.92;29.03;103000.33;1702728;82;20974;-96
2021/10/06 07:19:57;;;;;;;25.00;5.83;;;;;;;20.91;29.73;103005.52;1702324;82;21011;-92
2021/10/06 07:22:24;;;;;;;24.80;5.95;;;;;;;21.22;28.69;103008.59;1702513;82;21014;-93
2021/10/06 07:24:50;;;;;;;31.42;7.33;;;;;;;20.86;28.26;103007.17;1701746;82;21830;-92
2021/10/06 07:27:17;;;;;;;30.27;7.10;;;;;;;20.68;28.30;103001.34;1702334;82;20871;-90
2021/10/06 07:29:43;;;;;;;21.87;6.50;;;;;;;20.23;29.35;102993.19;1701908;83;21014;-94
2021/10/06 07:32:09;;;;;;;18.90;6.05;;;;;;;20.34;28.49;103000.38;1702127;83;21041;-91
2021/10/06 07:34:35;;;;;;;52.05;7.80;;;;;;;20.66;28.94;103000.25;1702084;83;21042;-92
2021/10/06 07:37:01;;;;;;;19.50;6.83;;;;;;;21.11;28.12;102989.11;1697846;82;21244;-90
2021/10/06 07:39:27;;;;;;;30.77;6.97;;;;;;;20.89;27.43;103007.17;1676356;84;21087;-92
2021/10/06 07:41:53;;;;;;;33.35;7.55;;;;;;;20.81;28.13;103012.63;1673651;84;20978;-88
2021/10/06 07:44:19;;;;;;;22.65;7.92;;;;;;;20.56;27.54;103008.42;1662095;84;20958;-93
2021/10/06 07:46:45;;;;;;;32.45;8.00;;;;;;;20.61;27.67;103012.01;1654361;85;21006;-92
2021/10/06 07:49:11;;;;;;;47.50;7.83;;;;;;;20.33;27.48;103010.50;1623409;86;21084;-93
2021/10/06 07:51:38;;;;;;;21.73;6.95;;;;;;;20.16;27.15;102997.00;1654163;85;21097;-91
2021/10/06 07:54:05;;;;;;;33.73;7.85;;;;;;;19.90;27.53;102996.02;1653964;85;21579;-93
2021/10/06 07:56:31;;;;;;;32.93;9.83;;;;;;;20.04;27.81;102988.72;1654517;85;21094;-93
2021/10/06 07:58:57;;;;;;;53.98;7.33;;;;;;;19.99;27.28;102990.05;1654106;86;21417;-90
2021/10/06 08:01:23;;;;;;;31.15;7.15;;;;;;;20.02;27.19;102981.31;1653984;85;21075;-93
2021/10/06 08:03:49;;;;;;;49.00;6.72;;;;;;;19.77;26.84;102980.08;1622675;85;21046;-94
2021/10/06 08:06:15;;;;;;;19.30;5.55;;;;;;;19.91;27.05;102987.26;1653952;85;20975;-94
2021/10/06 08:08:41;;;;;;;23.52;6.80;;;;;;;19.98;26.33;102977.47;1654124;85;20998;-93
2021/10/06 08:11:08;;;;;;;14.85;6.37;;;;;;;20.08;26.50;103003.52;1654196;85;21093;-95
2021/10/06 08:13:34;;;;;;;35.13;9.45;;;;;;;20.03;26.65;102981.58;1653922;85;21162;-90
2021/10/06 08:16:00;;;;;;;38.10;12.15;;;;;;;20.35;26.20;102983.69;1654065;85;21439;-92
2021/10/06 08:18:26;;;;;;;38.53;14.93;;;;;;;19.68;25.82;102991.23;1654130;86;20955;-94
2021/10/06 08:20:56;;;;;;;26.62;14.00;;;;;;;19.43;26.51;102992.63;1659671;83;22452;-91
2021/10/06 08:23:25;;;;;;;37.38;17.32;;;;;;;19.51;26.73;102979.03;1688009;83;21078;-92
2021/10/06 08:25:52;;;;;;;34.60;14.87;;;;;;;19.53;26.25;102972.77;1687586;83;21194;-94
2021/10/06 08:28:19;;;;;;;37.03;12.00;;;;;;;19.29;26.43;102988.68;1655149;83;21050;-93
2021/10/06 08:30:46;;;;;;;76.70;10.55;;;;;;;19.15;26.80;102981.98;1687573;83;21539;-91
2021/10/06 08:33:13;;;;;;;39.10;8.68;;;;;;;18.96;26.50;102999.30;1687898;83;21519;-93
2021/10/06 08:35:39;;;;;;;43.17;8.80;;;;;;;18.73;26.47;102983.99;1688432;83;21007;-94
2021/10/06 08:38:07;;;;;;;20.92;5.15;;;;;;;18.87;26.64;102989.92;1691335;82;22040;-94
2021/10/06 08:40:36;;;;;;;17.25;4.60;;;;;;;18.94;26.92;102986.42;1656320;84;21039;-92
2021/10/06 08:43:06;;;;;;;26.30;9.15;;;;;;;19.31;26.85;102971.48;1654340;85;21586;-87
2021/10/06 08:45:32;;;;;;;37.83;8.30;;;;;;;19.29;25.97;102965.44;1657145;85;21073;-88
2021/10/06 08:48:08;;;;;;;14.55;6.65;;;;;;;19.16;26.73;102970.80;1683827;83;21038;-88
2021/10/06 08:50:35;;;;;;;24.40;9.13;;;;;;;19.12;26.33;102964.22;1672253;84;21857;-83
2021/10/06 08:53:02;;;;;;;56.28;13.48;;;;;;;19.09;26.09;102965.25;1697023;83;21042;-87
2021/10/06 08:55:28;;;;;;;48.28;11.35;;;;;;;18.64;25.81;102968.59;1693912;83;21073;-88
2021/10/06 08:58:01;;;;;;;35.30;8.55;;;;;;;18.07;26.67;102975.27;1694194;83;21079;-89
2021/10/06 09:00:29;;;;;;;25.65;6.17;;;;;;;18.12;26.97;102967.16;1631242;86;21142;-87
2021/10/06 09:02:55;;;;;;;35.58;7.62;;;;;;;18.13;26.58;102964.70;1644002;86;21149;-86
2021/10/06 09:05:23;;;;;;;32.48;7.92;;;;;;;17.83;27.32;102957.47;1630448;86;20911;-87
2021/10/06 09:08:02;;;;;;;64.60;7.03;;;;;;;17.90;27.22;102958.92;1624585;87;21035;-86
2021/10/06 09:10:32;;;;;;;25.10;5.87;;;;;;;18.01;27.11;102949.53;1633568;85;21041;-87
2021/10/06 09:13:05;;;;;;;36.48;7.25;;;;;;;18.12;27.37;102951.33;1648100;85;21039;-90
2021/10/06 09:15:49;;;;;;;18.07;4.65;;;;;;;18.29;27.20;102950.70;1649474;86;21990;-89
2021/10/06 09:18:22;;;;;;;27.75;6.60;;;;;;;17.69;26.83;102950.95;1654257;85;21132;-86
2021/10/06 09:20:49;;;;;;;21.57;6.42;;;;;;;17.52;27.35;102939.23;1651549;86;21087;-83
2021/10/06 09:23:22;;;;;;;28.52;5.37;;;;;;;17.59;28.24;102945.88;1647873;85;21111;-87
2021/10/06 09:26:02;;;;;;;23.85;7.35;;;;;;;17.21;27.56;102937.39;1645799;86;21051;-85
2021/10/06 09:28:35;;;;;;;26.07;5.90;;;;;;;16.78;28.39;102945.61;1649634;87;21351;-88
2021/10/06 09:31:09;;;;;;;;;;;;;;;16.34;28.17;102954.78;1652279;87;21142;-88
2021/10/06 09:33:40;;;;;;;26.52;5.72;;;;;;;15.96;29.10;102944.98;1602760;89;20198;-84
2021/10/06 09:36:25;;;;;;;32.65;8.60;;;;;;;15.75;29.48;102929.56;1558735;92;21434;-85
2021/10/06 09:38:55;;;;;;;31.85;9.68;;;;;;;15.61;29.80;102937.09;1558821;92;21108;-85
2021/10/06 09:41:41;;;;;;;49.50;12.47;;;;;;;15.38;30.07;102925.70;1558796;92;21304;-87
2021/10/06 09:44:20;;;;;;;41.83;6.65;;;;;;;15.17;30.32;102928.95;1558553;91;20985;-86
2021/10/06 09:46:59;;;;;;;32.58;10.00;;;;;;;14.47;30.63;102924.92;1561090;90;21680;-82
2021/10/06 09:49:34;;;;;;;69.70;16.65;;;;;;;13.96;31.75;102925.30;1580706;90;21621;-86
2021/10/06 09:52:20;;;;;;;32.30;8.65;;;;;;;13.58;31.78;102923.06;1599217;89;21383;-87
2021/10/06 09:54:56;;;;;;;41.83;8.65;;;;;;;13.00;33.08;102928.72;1599890;89;21113;-86
2021/10/06 09:57:31;;;;;;;23.40;7.55;;;;;;;12.77;33.26;102920.33;1599270;89;21058;-87
2021/10/06 10:00:08;;;;;;;34.83;7.33;;;;;;;12.50;34.55;102902.89;1599626;89;21630;-85
2021/10/06 10:02:35;;;;;;;24.10;5.87;;;;;;;12.50;34.55;102902.89;1599357;89;21063;-87
2021/10/06 10:05:04;;;;;;;35.73;8.68;;;;;;;12.47;33.92;102928.48;1599751;89;21046;-86
2021/10/06 10:07:30;;;;;;;33.95;9.58;;;;;;;12.33;34.53;102907.95;1598200;89;21825;-86
2021/10/06 10:09:56;;;;;;;54.18;17.40;;;;;;;12.24;34.61;102913.30;1598173;89;20927;-84
2021/10/06 10:12:25;;;;;;;55.65;14.07;;;;;;;12.33;34.27;102908.48;1599722;89;21203;-87
2021/10/06 10:14:52;;;;;;;43.63;13.15;;;;;;;12.31;34.10;102903.80;1599682;89;21582;-85
2021/10/06 10:17:19;;;;;;;43.38;11.70;;;;;;;12.36;35.23;102902.11;1599641;89;21137;-85
2021/10/06 10:19:52;;;;;;;34.60;10.08;;;;;;;12.39;34.16;102894.09;1599580;89;21186;-86
2021/10/06 10:22:19;;;;;;;23.07;3.60;;;;;;;12.34;34.69;102903.37;1599648;89;21089;-84
2021/10/06 10:24:49;;;;;;;55.28;10.95;;;;;;;12.27;33.83;102892.06;1599865;89;21066;-86
2021/10/06 10:27:18;;;;;;;43.33;11.12;;;;;;;12.09;34.27;102900.53;1599504;88;21097;-84
2021/10/06 10:30:03;;;;;;;52.03;15.93;;;;;;;12.05;35.18;102896.91;1617880;86;21030;-85
2021/10/06 10:32:43;;;;;;;91.95;30.52;;;;;;;12.14;34.40;102897.50;1653354;85;21182;-86
2021/10/06 10:35:13;;;;;;;121.50;37.63;;;;;;;12.07;34.62;102891.83;1594298;90;21154;-84
2021/10/06 10:38:00;;;;;;;87.17;15.95;;;;;;;12.09;34.45;102887.02;1519660;93;21124;-84
2021/10/06 10:40:45;;;;;;;48.58;15.18;;;;;;;11.96;34.22;102884.67;1519749;93;21116;-85
2021/10/06 10:43:19;;;;;;;87.37;11.70;;;;;;;11.95;34.57;102878.15;1519695;93;21131;-85
2021/10/06 10:45:52;;;;;;;75.87;23.83;;;;;;;12.08;34.13;102859.17;1508589;93;21212;-85
2021/10/06 10:48:26;;;;;;;60.83;19.77;;;;;;;12.15;34.47;102878.09;1504137;95;22931;-84
2021/10/06 10:50:58;;;;;;;43.78;10.58;;;;;;;12.22;34.27;102875.64;1502176;95;21137;-84
2021/10/06 10:53:54;;;;;;;35.78;10.08;;;;;;;12.17;34.09;102866.52;1506172;94;21167;-84
2021/10/06 10:56:45;;;;;;;29.85;8.10;;;;;;;12.09;33.63;102873.02;1507380;95;21141;-86
2021/10/06 10:59:15;;;;;;;102.70;8.20;;;;;;;12.15;34.13;102878.91;1507195;95;21181;-84
2021/10/06 11:01:48;;;;;;;57.43;13.48;;;;;;;12.20;33.36;102866.91;1490328;96;21085;-87
2021/10/06 11:04:25;;;;;;;57.85;13.15;;;;;;;12.19;33.12;102840.11;1447484;98;21168;-84
2021/10/06 11:06:58;;;;;;;47.33;10.78;;;;;;;12.17;33.49;102856.53;1445978;98;21146;-85
2021/10/06 11:09:41;;;;;;;20.80;4.40;;;;;;;12.31;33.62;102854.60;1444834;98;21126;-85
2021/10/06 11:12:14;;;;;;;42.43;10.80;;;;;;;12.30;32.87;102844.02;1447705;98;21365;-86
2021/10/06 11:14:43;;;;;;;408.30;133.15;;;;;;;12.30;33.19;102839.97;1418549;99;20979;-85
2021/10/06 11:17:18;;;;;;;536.23;192.77;;;;;;;12.32;33.05;102840.03;1418737;100;21234;-84
2021/10/06 11:19:51;;;;;;;232.40;60.40;;;;;;;12.47;33.55;102842.44;1418800;99;21046;-86